sensor_id;sensor_type;location;lat;lon;timestamp;temperature;humidity
1361;DHT22;674;45.552;-122.600;2024-01-15T00:01:43;-4.50;1.00
1361;DHT22;674;45.552;-122.600;2024-01-15T00:04:12;-4.50;1.00
1361;DHT22;674;45.552;-122.600;2024-01-15T00:06:41;-4.50;1.00
1361;DHT22;674;45.552;-122.600;2024-01-15T00:09:10;-4.50;1.00
1361;DHT22;674;45.552;-122.600;2024-01-15T00:11:39;-4.70;1.00
1361;DHT22;674;45.552;-122.600;2024-01-15T00:14:07;-4.70;1.00
1361;DHT22;674;45.552;-122.600;2024-01-15T00:16:36;-4.70;1.00
1361;DHT22;674;45.552;-122.600;2024-01-15T00:19:05;-4.70;1.00
1361;DHT22;674;45.552;-122.600;2024-01-15T00:21:33;-4.70;1.00
1361;DHT22;674;45.552;-122.600;2024-01-15T00:24:02;-4.70;1.00
1361;DHT22;674;45.552;-122.600;2024-01-15T00:26:31;-5.20;1.00
1361;DHT22;674;45.552;-122.600;2024-01-15T00:28:59;-5.20;1.00
1361;DHT22;674;45.552;-122.600;2024-01-15T00:31:28;-5.20;1.00
1361;DHT22;674;45.552;-122.600;2024-01-15T00:33:58;-5.20;1.00
1361;DHT22;674;45.552;-122.600;2024-01-15T00:36:27;-5.20;1.00
1361;DHT22;674;45.552;-122.600;2024-01-15T00:38:55;-4.90;1.00
1361;DHT22;674;45.552;-122.600;2024-01-15T00:41:24;-5.20;1.00
1361;DHT22;674;45.552;-122.600;2024-01-15T00:43:52;-5.20;1.00
1361;DHT22;674;45.552;-122.600;2024-01-15T00:46:21;-5.30;1.00
1361;DHT22;674;45.552;-122.600;2024-01-15T00:48:50;-5.30;1.00
1361;DHT22;674;45.552;-122.600;2024-01-15T00:51:19;-5.40;1.00
1361;DHT22;674;45.552;-122.600;2024-01-15T00:53:47;-5.40;1.00
1361;DHT22;674;45.552;-122.600;2024-01-15T00:56:16;-5.40;1.00
1361;DHT22;674;45.552;-122.600;2024-01-15T00:58:45;-5.40;1.00
1361;DHT22;674;45.552;-122.600;2024-01-15T01:01:13;-5.60;1.00
1361;DHT22;674;45.552;-122.600;2024-01-15T01:03:42;-5.60;1.00
1361;DHT22;674;45.552;-122.600;2024-01-15T01:06:11;-5.60;1.00
1361;DHT22;674;45.552;-122.600;2024-01-15T01:08:40;-5.50;1.00
1361;DHT22;674;45.552;-122.600;2024-01-15T01:11:13;-5.10;1.00
1361;DHT22;674;45.552;-122.600;2024-01-15T01:13:42;-5.30;1.00
1361;DHT22;674;45.552;-122.600;2024-01-15T01:16:11;-5.40;1.00
1361;DHT22;674;45.552;-122.600;2024-01-15T01:18:39;-5.40;1.00
1361;DHT22;674;45.552;-122.600;2024-01-15T01:21:09;-5.50;1.00
1361;DHT22;674;45.552;-122.600;2024-01-15T01:23:38;-5.80;1.00
1361;DHT22;674;45.552;-122.600;2024-01-15T01:26:06;-5.80;1.00
1361;DHT22;674;45.552;-122.600;2024-01-15T01:28:35;-5.80;1.00
1361;DHT22;674;45.552;-122.600;2024-01-15T01:31:04;-5.80;1.00
1361;DHT22;674;45.552;-122.600;2024-01-15T01:33:33;-5.80;1.00
1361;DHT22;674;45.552;-122.600;2024-01-15T01:36:07;-5.80;1.00
1361;DHT22;674;45.552;-122.600;2024-01-15T01:38:37;-5.60;1.00
1361;DHT22;674;45.552;-122.600;2024-01-15T01:41:07;-5.60;1.00
1361;DHT22;674;45.552;-122.600;2024-01-15T01:43:36;-5.70;1.00
1361;DHT22;674;45.552;-122.600;2024-01-15T01:46:05;-5.80;1.00
1361;DHT22;674;45.552;-122.600;2024-01-15T01:48:36;-5.80;1.00
1361;DHT22;674;45.552;-122.600;2024-01-15T01:51:05;-5.80;1.00
1361;DHT22;674;45.552;-122.600;2024-01-15T01:53:35;-5.80;1.00
1361;DHT22;674;45.552;-122.600;2024-01-15T01:56:05;-5.80;1.00
1361;DHT22;674;45.552;-122.600;2024-01-15T01:58:35;-5.60;1.00
1361;DHT22;674;45.552;-122.600;2024-01-15T02:01:04;-5.50;1.00
1361;DHT22;674;45.552;-122.600;2024-01-15T02:03:34;-5.60;1.00
1361;DHT22;674;45.552;-122.600;2024-01-15T02:06:04;-5.60;1.00
1361;DHT22;674;45.552;-122.600;2024-01-15T02:08:34;-5.60;1.00
1361;DHT22;674;45.552;-122.600;2024-01-15T02:11:03;-5.50;1.00
1361;DHT22;674;45.552;-122.600;2024-01-15T02:13:33;-5.60;1.00
1361;DHT22;674;45.552;-122.600;2024-01-15T02:16:02;-5.50;1.00
1361;DHT22;674;45.552;-122.600;2024-01-15T02:18:43;-5.80;1.00
1361;DHT22;674;45.552;-122.600;2024-01-15T02:21:15;-5.50;1.00
1361;DHT22;674;45.552;-122.600;2024-01-15T02:23:44;-5.80;1.00
1361;DHT22;674;45.552;-122.600;2024-01-15T02:26:14;-5.60;1.00
1361;DHT22;674;45.552;-122.600;2024-01-15T02:28:43;-5.80;1.00
1361;DHT22;674;45.552;-122.600;2024-01-15T02:31:13;-5.80;1.00
1361;DHT22;674;45.552;-122.600;2024-01-15T02:33:43;-5.50;1.00
1361;DHT22;674;45.552;-122.600;2024-01-15T02:36:12;-5.70;1.00
1361;DHT22;674;45.552;-122.600;2024-01-15T02:38:42;-5.80;1.00
1361;DHT22;674;45.552;-122.600;2024-01-15T02:41:11;-5.70;1.00
1361;DHT22;674;45.552;-122.600;2024-01-15T02:43:42;-5.80;1.00
1361;DHT22;674;45.552;-122.600;2024-01-15T02:46:12;-6.00;1.00
1361;DHT22;674;45.552;-122.600;2024-01-15T02:48:40;-5.70;1.00
1361;DHT22;674;45.552;-122.600;2024-01-15T02:51:10;-5.90;1.00
1361;DHT22;674;45.552;-122.600;2024-01-15T02:53:39;-5.80;1.00
1361;DHT22;674;45.552;-122.600;2024-01-15T02:56:08;-5.60;1.00
1361;DHT22;674;45.552;-122.600;2024-01-15T02:58:38;-5.80;1.00
1361;DHT22;674;45.552;-122.600;2024-01-15T03:01:07;-6.00;1.00
1361;DHT22;674;45.552;-122.600;2024-01-15T03:03:37;-5.80;1.00
1361;DHT22;674;45.552;-122.600;2024-01-15T03:06:06;-5.80;1.00
1361;DHT22;674;45.552;-122.600;2024-01-15T03:08:36;-5.80;1.00
1361;DHT22;674;45.552;-122.600;2024-01-15T03:11:04;-5.80;1.00
1361;DHT22;674;45.552;-122.600;2024-01-15T03:13:36;-5.80;1.00
1361;DHT22;674;45.552;-122.600;2024-01-15T03:16:05;-5.80;1.00
1361;DHT22;674;45.552;-122.600;2024-01-15T03:18:35;-5.80;1.00
1361;DHT22;674;45.552;-122.600;2024-01-15T03:21:05;-5.80;1.00
1361;DHT22;674;45.552;-122.600;2024-01-15T03:23:34;-5.60;1.00
1361;DHT22;674;45.552;-122.600;2024-01-15T03:26:03;-5.60;1.00
1361;DHT22;674;45.552;-122.600;2024-01-15T03:28:31;-5.60;1.00
1361;DHT22;674;45.552;-122.600;2024-01-15T03:31:00;-6.00;1.00
1361;DHT22;674;45.552;-122.600;2024-01-15T03:33:29;-5.80;1.00
1361;DHT22;674;45.552;-122.600;2024-01-15T03:35:59;-5.70;1.00
1361;DHT22;674;45.552;-122.600;2024-01-15T03:38:28;-5.80;1.00
1361;DHT22;674;45.552;-122.600;2024-01-15T03:40:57;-5.60;1.00
1361;DHT22;674;45.552;-122.600;2024-01-15T03:43:27;-5.60;1.00
1361;DHT22;674;45.552;-122.600;2024-01-15T03:45:56;-5.80;1.00
1361;DHT22;674;45.552;-122.600;2024-01-15T03:48:24;-6.00;1.00
1361;DHT22;674;45.552;-122.600;2024-01-15T03:50:53;-5.80;1.00
1361;DHT22;674;45.552;-122.600;2024-01-15T03:53:22;-5.90;1.00
1361;DHT22;674;45.552;-122.600;2024-01-15T03:55:51;-5.90;1.00
1361;DHT22;674;45.552;-122.600;2024-01-15T03:58:20;-5.80;1.00
1361;DHT22;674;45.552;-122.600;2024-01-15T04:00:49;-5.80;1.00
1361;DHT22;674;45.552;-122.600;2024-01-15T04:03:18;-5.80;1.00
1361;DHT22;674;45.552;-122.600;2024-01-15T04:05:47;-5.80;1.00
1361;DHT22;674;45.552;-122.600;2024-01-15T04:08:15;-5.60;1.00
1361;DHT22;674;45.552;-122.600;2024-01-15T04:10:44;-5.40;1.00
1361;DHT22;674;45.552;-122.600;2024-01-15T04:13:13;-5.50;1.00
1361;DHT22;674;45.552;-122.600;2024-01-15T04:15:41;-5.70;1.00
1361;DHT22;674;45.552;-122.600;2024-01-15T04:18:10;-5.60;1.00
1361;DHT22;674;45.552;-122.600;2024-01-15T04:20:39;-5.70;1.00
1361;DHT22;674;45.552;-122.600;2024-01-15T04:23:07;-5.70;1.00
1361;DHT22;674;45.552;-122.600;2024-01-15T04:25:36;-5.80;1.00
1361;DHT22;674;45.552;-122.600;2024-01-15T04:28:05;-5.80;1.00
1361;DHT22;674;45.552;-122.600;2024-01-15T04:30:34;-5.80;1.00
1361;DHT22;674;45.552;-122.600;2024-01-15T04:33:04;-5.70;1.00
1361;DHT22;674;45.552;-122.600;2024-01-15T04:35:33;-5.70;1.00
1361;DHT22;674;45.552;-122.600;2024-01-15T04:38:02;-5.60;1.00
1361;DHT22;674;45.552;-122.600;2024-01-15T04:40:30;-5.50;1.00
1361;DHT22;674;45.552;-122.600;2024-01-15T04:42:59;-5.80;1.00
1361;DHT22;674;45.552;-122.600;2024-01-15T04:45:28;-5.80;1.00
1361;DHT22;674;45.552;-122.600;2024-01-15T04:47:56;-5.80;1.00
1361;DHT22;674;45.552;-122.600;2024-01-15T04:50:26;-5.80;1.00
1361;DHT22;674;45.552;-122.600;2024-01-15T04:52:54;-5.80;1.00
1361;DHT22;674;45.552;-122.600;2024-01-15T04:55:23;-5.90;1.00
1361;DHT22;674;45.552;-122.600;2024-01-15T04:57:52;-5.80;1.00
1361;DHT22;674;45.552;-122.600;2024-01-15T05:00:21;-5.90;1.00
1361;DHT22;674;45.552;-122.600;2024-01-15T05:02:49;-5.90;1.00
1361;DHT22;674;45.552;-122.600;2024-01-15T05:05:18;-5.80;1.00
1361;DHT22;674;45.552;-122.600;2024-01-15T05:07:46;-5.70;1.00
1361;DHT22;674;45.552;-122.600;2024-01-15T05:10:15;-5.80;1.00
1361;DHT22;674;45.552;-122.600;2024-01-15T05:12:44;-6.00;1.00
1361;DHT22;674;45.552;-122.600;2024-01-15T05:15:12;-5.90;1.00
1361;DHT22;674;45.552;-122.600;2024-01-15T05:17:41;-5.80;1.00
1361;DHT22;674;45.552;-122.600;2024-01-15T05:20:11;-5.80;1.00
1361;DHT22;674;45.552;-122.600;2024-01-15T05:22:39;-5.80;1.00
1361;DHT22;674;45.552;-122.600;2024-01-15T05:25:08;-5.80;1.00
1361;DHT22;674;45.552;-122.600;2024-01-15T05:27:37;-5.60;1.00
1361;DHT22;674;45.552;-122.600;2024-01-15T05:30:06;-5.60;1.00
1361;DHT22;674;45.552;-122.600;2024-01-15T05:32:35;-5.90;1.00
1361;DHT22;674;45.552;-122.600;2024-01-15T05:35:04;-5.80;1.00
1361;DHT22;674;45.552;-122.600;2024-01-15T05:37:33;-5.70;1.00
1361;DHT22;674;45.552;-122.600;2024-01-15T05:40:01;-5.80;1.00
1361;DHT22;674;45.552;-122.600;2024-01-15T05:42:33;-5.70;1.00
1361;DHT22;674;45.552;-122.600;2024-01-15T05:45:05;-5.80;1.00
1361;DHT22;674;45.552;-122.600;2024-01-15T05:47:35;-6.00;1.00
1361;DHT22;674;45.552;-122.600;2024-01-15T05:50:04;-5.80;1.00
1361;DHT22;674;45.552;-122.600;2024-01-15T05:52:33;-6.00;1.00
1361;DHT22;674;45.552;-122.600;2024-01-15T05:55:02;-5.80;1.00
1361;DHT22;674;45.552;-122.600;2024-01-15T05:57:31;-5.70;1.00
1361;DHT22;674;45.552;-122.600;2024-01-15T06:00:00;-5.90;1.00
1361;DHT22;674;45.552;-122.600;2024-01-15T06:02:29;-5.90;1.00
1361;DHT22;674;45.552;-122.600;2024-01-15T06:04:57;-5.80;1.00
1361;DHT22;674;45.552;-122.600;2024-01-15T06:07:26;-5.80;1.00
1361;DHT22;674;45.552;-122.600;2024-01-15T06:09:55;-5.70;1.00
1361;DHT22;674;45.552;-122.600;2024-01-15T06:12:25;-5.80;1.00
1361;DHT22;674;45.552;-122.600;2024-01-15T06:14:54;-5.60;1.00
1361;DHT22;674;45.552;-122.600;2024-01-15T06:17:23;-5.60;1.00
1361;DHT22;674;45.552;-122.600;2024-01-15T06:19:51;-5.50;1.00
1361;DHT22;674;45.552;-122.600;2024-01-15T06:22:20;-5.60;1.00
1361;DHT22;674;45.552;-122.600;2024-01-15T06:24:49;-5.80;1.00
1361;DHT22;674;45.552;-122.600;2024-01-15T06:27:17;-5.70;1.00
1361;DHT22;674;45.552;-122.600;2024-01-15T06:29:46;-5.90;1.00
1361;DHT22;674;45.552;-122.600;2024-01-15T06:32:17;-5.80;1.00
1361;DHT22;674;45.552;-122.600;2024-01-15T06:34:46;-5.80;1.00
1361;DHT22;674;45.552;-122.600;2024-01-15T06:37:15;-5.90;1.00
1361;DHT22;674;45.552;-122.600;2024-01-15T06:39:44;-5.90;1.00
1361;DHT22;674;45.552;-122.600;2024-01-15T06:42:12;-6.00;1.00
1361;DHT22;674;45.552;-122.600;2024-01-15T06:44:41;-5.90;1.00
1361;DHT22;674;45.552;-122.600;2024-01-15T06:47:09;-5.90;1.00
1361;DHT22;674;45.552;-122.600;2024-01-15T06:49:38;-5.90;1.00
1361;DHT22;674;45.552;-122.600;2024-01-15T06:52:07;-6.00;1.00
1361;DHT22;674;45.552;-122.600;2024-01-15T06:54:36;-5.70;1.00
1361;DHT22;674;45.552;-122.600;2024-01-15T06:57:06;-5.80;1.00
1361;DHT22;674;45.552;-122.600;2024-01-15T06:59:35;-6.00;1.00
1361;DHT22;674;45.552;-122.600;2024-01-15T07:02:04;-5.90;1.00
1361;DHT22;674;45.552;-122.600;2024-01-15T07:04:32;-6.00;1.00
1361;DHT22;674;45.552;-122.600;2024-01-15T07:07:01;-6.00;1.00
1361;DHT22;674;45.552;-122.600;2024-01-15T07:09:30;-5.80;1.00
1361;DHT22;674;45.552;-122.600;2024-01-15T07:11:58;-5.70;1.00
1361;DHT22;674;45.552;-122.600;2024-01-15T07:14:27;-5.80;1.00
1361;DHT22;674;45.552;-122.600;2024-01-15T07:16:56;-5.70;1.00
1361;DHT22;674;45.552;-122.600;2024-01-15T07:19:25;-5.80;1.00
1361;DHT22;674;45.552;-122.600;2024-01-15T07:21:54;-5.80;1.00
1361;DHT22;674;45.552;-122.600;2024-01-15T07:24:23;-5.80;1.00
1361;DHT22;674;45.552;-122.600;2024-01-15T07:26:52;-5.80;1.00
1361;DHT22;674;45.552;-122.600;2024-01-15T07:29:20;-5.60;1.00
1361;DHT22;674;45.552;-122.600;2024-01-15T07:31:50;-5.70;1.00
1361;DHT22;674;45.552;-122.600;2024-01-15T07:34:19;-5.80;1.00
1361;DHT22;674;45.552;-122.600;2024-01-15T07:36:48;-5.80;1.00
1361;DHT22;674;45.552;-122.600;2024-01-15T07:39:17;-5.90;1.00
1361;DHT22;674;45.552;-122.600;2024-01-15T07:41:46;-5.80;1.00
1361;DHT22;674;45.552;-122.600;2024-01-15T07:44:14;-5.80;1.00
1361;DHT22;674;45.552;-122.600;2024-01-15T07:46:47;-5.90;1.00
1361;DHT22;674;45.552;-122.600;2024-01-15T07:49:15;-5.80;1.00
1361;DHT22;674;45.552;-122.600;2024-01-15T07:51:45;-5.90;1.00
1361;DHT22;674;45.552;-122.600;2024-01-15T07:54:13;-5.90;1.00
1361;DHT22;674;45.552;-122.600;2024-01-15T07:57:01;-5.90;1.00
1361;DHT22;674;45.552;-122.600;2024-01-15T07:59:35;-6.00;1.00
1361;DHT22;674;45.552;-122.600;2024-01-15T08:02:03;-5.90;1.00
1361;DHT22;674;45.552;-122.600;2024-01-15T08:04:32;-6.10;1.00
1361;DHT22;674;45.552;-122.600;2024-01-15T08:07:01;-6.10;1.00
1361;DHT22;674;45.552;-122.600;2024-01-15T08:09:31;-6.10;1.00
1361;DHT22;674;45.552;-122.600;2024-01-15T08:11:59;-6.10;1.00
1361;DHT22;674;45.552;-122.600;2024-01-15T08:14:29;-6.10;1.00
1361;DHT22;674;45.552;-122.600;2024-01-15T08:16:57;-6.10;1.00
1361;DHT22;674;45.552;-122.600;2024-01-15T08:19:26;-6.10;1.00
1361;DHT22;674;45.552;-122.600;2024-01-15T08:21:55;-6.10;1.00
1361;DHT22;674;45.552;-122.600;2024-01-15T08:24:23;-6.10;1.00
1361;DHT22;674;45.552;-122.600;2024-01-15T08:26:52;-6.10;1.00
1361;DHT22;674;45.552;-122.600;2024-01-15T08:29:21;-6.10;1.00
1361;DHT22;674;45.552;-122.600;2024-01-15T08:31:50;-6.10;1.00
1361;DHT22;674;45.552;-122.600;2024-01-15T08:34:19;-6.20;1.00
1361;DHT22;674;45.552;-122.600;2024-01-15T08:36:47;-6.00;1.00
1361;DHT22;674;45.552;-122.600;2024-01-15T08:39:16;-6.00;1.00
1361;DHT22;674;45.552;-122.600;2024-01-15T08:41:46;-5.90;1.00
1361;DHT22;674;45.552;-122.600;2024-01-15T08:44:14;-6.20;1.00
1361;DHT22;674;45.552;-122.600;2024-01-15T08:46:43;-5.90;1.00
1361;DHT22;674;45.552;-122.600;2024-01-15T08:49:12;-6.10;1.00
1361;DHT22;674;45.552;-122.600;2024-01-15T08:51:40;-6.20;1.00
1361;DHT22;674;45.552;-122.600;2024-01-15T08:54:09;-6.00;1.00
1361;DHT22;674;45.552;-122.600;2024-01-15T08:56:38;-6.10;1.00
1361;DHT22;674;45.552;-122.600;2024-01-15T08:59:08;-6.10;1.00
1361;DHT22;674;45.552;-122.600;2024-01-15T09:01:38;-6.30;1.00
1361;DHT22;674;45.552;-122.600;2024-01-15T09:04:08;-6.30;1.00
1361;DHT22;674;45.552;-122.600;2024-01-15T09:06:37;-6.30;1.00
1361;DHT22;674;45.552;-122.600;2024-01-15T09:09:05;-6.30;1.00
1361;DHT22;674;45.552;-122.600;2024-01-15T09:11:34;-6.30;1.00
1361;DHT22;674;45.552;-122.600;2024-01-15T09:14:03;-6.30;1.00
1361;DHT22;674;45.552;-122.600;2024-01-15T09:16:31;-6.10;1.00
1361;DHT22;674;45.552;-122.600;2024-01-15T09:19:00;-6.10;1.00
1361;DHT22;674;45.552;-122.600;2024-01-15T09:21:29;-6.10;1.00
1361;DHT22;674;45.552;-122.600;2024-01-15T09:23:58;-6.10;1.00
1361;DHT22;674;45.552;-122.600;2024-01-15T09:26:26;-6.10;1.00
1361;DHT22;674;45.552;-122.600;2024-01-15T09:28:57;-6.10;1.00
1361;DHT22;674;45.552;-122.600;2024-01-15T09:31:25;-5.90;1.00
1361;DHT22;674;45.552;-122.600;2024-01-15T09:33:55;-6.10;1.00
1361;DHT22;674;45.552;-122.600;2024-01-15T09:36:28;-6.20;1.00
1361;DHT22;674;45.552;-122.600;2024-01-15T09:38:56;-6.00;1.00
1361;DHT22;674;45.552;-122.600;2024-01-15T09:41:25;-6.00;1.00
1361;DHT22;674;45.552;-122.600;2024-01-15T09:43:54;-6.00;1.00
1361;DHT22;674;45.552;-122.600;2024-01-15T09:46:23;-5.80;1.00
1361;DHT22;674;45.552;-122.600;2024-01-15T09:48:51;-6.20;1.00
1361;DHT22;674;45.552;-122.600;2024-01-15T09:51:20;-5.90;1.00
1361;DHT22;674;45.552;-122.600;2024-01-15T09:53:50;-6.00;1.00
1361;DHT22;674;45.552;-122.600;2024-01-15T09:56:19;-6.00;1.00
1361;DHT22;674;45.552;-122.600;2024-01-15T09:58:48;-5.90;1.00
1361;DHT22;674;45.552;-122.600;2024-01-15T10:01:20;-6.00;1.00
1361;DHT22;674;45.552;-122.600;2024-01-15T10:03:50;-6.00;1.00
1361;DHT22;674;45.552;-122.600;2024-01-15T10:06:21;-5.90;1.00
1361;DHT22;674;45.552;-122.600;2024-01-15T10:08:51;-6.00;1.00
1361;DHT22;674;45.552;-122.600;2024-01-15T10:11:20;-5.90;1.00
1361;DHT22;674;45.552;-122.600;2024-01-15T10:13:49;-5.90;1.00
1361;DHT22;674;45.552;-122.600;2024-01-15T10:16:24;-5.90;1.00
1361;DHT22;674;45.552;-122.600;2024-01-15T10:18:52;-5.80;1.00
1361;DHT22;674;45.552;-122.600;2024-01-15T10:21:21;-5.80;1.00
1361;DHT22;674;45.552;-122.600;2024-01-15T10:23:50;-5.80;1.00
1361;DHT22;674;45.552;-122.600;2024-01-15T10:26:23;-5.80;1.00
1361;DHT22;674;45.552;-122.600;2024-01-15T10:28:52;-5.80;1.00
1361;DHT22;674;45.552;-122.600;2024-01-15T10:31:21;-5.80;1.00
1361;DHT22;674;45.552;-122.600;2024-01-15T10:33:54;-5.80;1.00
1361;DHT22;674;45.552;-122.600;2024-01-15T10:36:23;-5.80;1.00
1361;DHT22;674;45.552;-122.600;2024-01-15T10:38:51;-5.80;1.00
1361;DHT22;674;45.552;-122.600;2024-01-15T10:41:20;-5.80;1.00
1361;DHT22;674;45.552;-122.600;2024-01-15T10:43:49;-5.80;1.00
1361;DHT22;674;45.552;-122.600;2024-01-15T10:46:17;-5.80;1.00
1361;DHT22;674;45.552;-122.600;2024-01-15T10:48:46;-5.50;1.00
1361;DHT22;674;45.552;-122.600;2024-01-15T10:51:15;-5.70;1.00
1361;DHT22;674;45.552;-122.600;2024-01-15T10:53:45;-5.80;1.00
1361;DHT22;674;45.552;-122.600;2024-01-15T10:56:14;-5.80;1.00
1361;DHT22;674;45.552;-122.600;2024-01-15T10:58:44;-5.60;1.00
1361;DHT22;674;45.552;-122.600;2024-01-15T11:01:13;-5.70;1.00
1361;DHT22;674;45.552;-122.600;2024-01-15T11:03:43;-5.80;1.00
1361;DHT22;674;45.552;-122.600;2024-01-15T11:06:19;-5.80;1.00
1361;DHT22;674;45.552;-122.600;2024-01-15T11:08:52;-5.80;1.00
1361;DHT22;674;45.552;-122.600;2024-01-15T11:11:24;-5.70;1.00
1361;DHT22;674;45.552;-122.600;2024-01-15T11:13:53;-5.80;1.00
1361;DHT22;674;45.552;-122.600;2024-01-15T11:16:22;-5.60;1.00
1361;DHT22;674;45.552;-122.600;2024-01-15T11:21:27;-5.60;1.00
1361;DHT22;674;45.552;-122.600;2024-01-15T11:24:01;-5.50;1.00
1361;DHT22;674;45.552;-122.600;2024-01-15T11:26:45;-5.60;1.00
1361;DHT22;674;45.552;-122.600;2024-01-15T11:29:34;-5.50;1.00
1361;DHT22;674;45.552;-122.600;2024-01-15T11:32:10;-5.60;1.00
1361;DHT22;674;45.552;-122.600;2024-01-15T11:34:54;-5.50;1.00
1361;DHT22;674;45.552;-122.600;2024-01-15T11:40:18;-5.40;1.00
1361;DHT22;674;45.552;-122.600;2024-01-15T11:42:48;-5.50;1.00
1361;DHT22;674;45.552;-122.600;2024-01-15T11:45:19;-5.80;1.00
1361;DHT22;674;45.552;-122.600;2024-01-15T11:48:24;-5.80;1.00
1361;DHT22;674;45.552;-122.600;2024-01-15T11:51:02;-5.80;1.00
1361;DHT22;674;45.552;-122.600;2024-01-15T11:53:45;-5.80;1.00
1361;DHT22;674;45.552;-122.600;2024-01-15T11:56:16;-5.70;1.00
1361;DHT22;674;45.552;-122.600;2024-01-15T11:58:45;-5.80;1.00
1361;DHT22;674;45.552;-122.600;2024-01-15T12:01:14;-5.80;1.00
1361;DHT22;674;45.552;-122.600;2024-01-15T12:03:42;-5.80;1.00
1361;DHT22;674;45.552;-122.600;2024-01-15T12:06:12;-5.70;1.00
1361;DHT22;674;45.552;-122.600;2024-01-15T12:08:41;-5.80;1.00
1361;DHT22;674;45.552;-122.600;2024-01-15T12:11:13;-5.80;1.00
1361;DHT22;674;45.552;-122.600;2024-01-15T12:13:44;-5.90;1.00
1361;DHT22;674;45.552;-122.600;2024-01-15T12:16:13;-6.00;1.00
1361;DHT22;674;45.552;-122.600;2024-01-15T12:18:41;-5.90;1.00
1361;DHT22;674;45.552;-122.600;2024-01-15T12:21:10;-6.00;1.00
1361;DHT22;674;45.552;-122.600;2024-01-15T12:23:39;-5.80;1.00
1361;DHT22;674;45.552;-122.600;2024-01-15T12:26:08;-6.10;1.00
1361;DHT22;674;45.552;-122.600;2024-01-15T12:28:37;-6.00;1.00
1361;DHT22;674;45.552;-122.600;2024-01-15T12:31:06;-5.90;1.00
1361;DHT22;674;45.552;-122.600;2024-01-15T12:33:36;-6.00;1.00
1361;DHT22;674;45.552;-122.600;2024-01-15T12:36:04;-6.00;1.00
1361;DHT22;674;45.552;-122.600;2024-01-15T12:38:33;-5.80;1.00
1361;DHT22;674;45.552;-122.600;2024-01-15T12:41:02;-6.00;1.00
1361;DHT22;674;45.552;-122.600;2024-01-15T12:43:30;-5.90;1.00
1361;DHT22;674;45.552;-122.600;2024-01-15T12:45:59;-5.90;1.00
1361;DHT22;674;45.552;-122.600;2024-01-15T12:48:28;-6.10;1.00
1361;DHT22;674;45.552;-122.600;2024-01-15T12:50:57;-6.10;1.00
1361;DHT22;674;45.552;-122.600;2024-01-15T12:53:25;-6.00;1.00
1361;DHT22;674;45.552;-122.600;2024-01-15T12:55:54;-5.90;1.00
1361;DHT22;674;45.552;-122.600;2024-01-15T12:58:23;-6.00;1.00
1361;DHT22;674;45.552;-122.600;2024-01-15T13:00:51;-5.80;1.00
1361;DHT22;674;45.552;-122.600;2024-01-15T13:03:20;-6.10;1.00
1361;DHT22;674;45.552;-122.600;2024-01-15T13:05:50;-5.90;1.00
1361;DHT22;674;45.552;-122.600;2024-01-15T13:08:20;-6.00;1.00
1361;DHT22;674;45.552;-122.600;2024-01-15T13:10:52;-5.80;1.00
1361;DHT22;674;45.552;-122.600;2024-01-15T13:13:24;-5.90;1.00
1361;DHT22;674;45.552;-122.600;2024-01-15T13:15:52;-5.90;1.00
1361;DHT22;674;45.552;-122.600;2024-01-15T13:18:21;-6.00;1.00
1361;DHT22;674;45.552;-122.600;2024-01-15T13:20:50;-5.70;1.00
1361;DHT22;674;45.552;-122.600;2024-01-15T13:23:26;-5.90;1.00
1361;DHT22;674;45.552;-122.600;2024-01-15T13:26:08;-5.90;1.00
1361;DHT22;674;45.552;-122.600;2024-01-15T13:28:36;-5.90;1.00
1361;DHT22;674;45.552;-122.600;2024-01-15T13:31:05;-6.00;1.00
1361;DHT22;674;45.552;-122.600;2024-01-15T13:33:34;-5.70;1.00
1361;DHT22;674;45.552;-122.600;2024-01-15T13:36:05;-5.90;1.00
1361;DHT22;674;45.552;-122.600;2024-01-15T13:38:39;-5.80;1.00
1361;DHT22;674;45.552;-122.600;2024-01-15T13:41:09;-5.90;1.00
1361;DHT22;674;45.552;-122.600;2024-01-15T13:43:38;-5.80;1.00
1361;DHT22;674;45.552;-122.600;2024-01-15T13:46:06;-5.80;1.00
1361;DHT22;674;45.552;-122.600;2024-01-15T13:48:35;-5.90;1.00
1361;DHT22;674;45.552;-122.600;2024-01-15T13:51:04;-5.80;1.00
1361;DHT22;674;45.552;-122.600;2024-01-15T13:53:32;-5.80;1.00
1361;DHT22;674;45.552;-122.600;2024-01-15T13:56:01;-5.60;1.00
1361;DHT22;674;45.552;-122.600;2024-01-15T13:58:30;-5.90;1.00
1361;DHT22;674;45.552;-122.600;2024-01-15T14:01:00;-5.80;1.00
1361;DHT22;674;45.552;-122.600;2024-01-15T14:03:28;-5.60;1.00
1361;DHT22;674;45.552;-122.600;2024-01-15T14:05:58;-6.00;1.00
1361;DHT22;674;45.552;-122.600;2024-01-15T14:08:28;-5.80;1.00
1361;DHT22;674;45.552;-122.600;2024-01-15T14:10:57;-6.10;1.00
1361;DHT22;674;45.552;-122.600;2024-01-15T14:13:25;-6.00;1.00
1361;DHT22;674;45.552;-122.600;2024-01-15T14:15:54;-5.80;1.00
1361;DHT22;674;45.552;-122.600;2024-01-15T14:18:23;-6.00;1.00
1361;DHT22;674;45.552;-122.600;2024-01-15T14:20:52;-5.80;1.00
1361;DHT22;674;45.552;-122.600;2024-01-15T14:23:24;-5.70;1.00
1361;DHT22;674;45.552;-122.600;2024-01-15T14:25:53;-5.70;1.00
1361;DHT22;674;45.552;-122.600;2024-01-15T14:28:21;-5.90;1.00
1361;DHT22;674;45.552;-122.600;2024-01-15T14:30:51;-6.00;1.00
1361;DHT22;674;45.552;-122.600;2024-01-15T14:33:21;-5.90;1.00
1361;DHT22;674;45.552;-122.600;2024-01-15T14:35:49;-6.00;1.00
1361;DHT22;674;45.552;-122.600;2024-01-15T14:38:19;-5.80;1.00
1361;DHT22;674;45.552;-122.600;2024-01-15T14:40:47;-6.00;1.00
1361;DHT22;674;45.552;-122.600;2024-01-15T14:43:17;-5.80;1.00
1361;DHT22;674;45.552;-122.600;2024-01-15T14:45:46;-6.10;1.00
1361;DHT22;674;45.552;-122.600;2024-01-15T14:48:14;-6.00;1.00
1361;DHT22;674;45.552;-122.600;2024-01-15T14:50:43;-5.80;1.00
1361;DHT22;674;45.552;-122.600;2024-01-15T14:53:12;-6.10;1.00
1361;DHT22;674;45.552;-122.600;2024-01-15T14:55:40;-6.00;1.00
1361;DHT22;674;45.552;-122.600;2024-01-15T14:58:09;-5.80;1.00
1361;DHT22;674;45.552;-122.600;2024-01-15T15:00:38;-6.10;1.00
1361;DHT22;674;45.552;-122.600;2024-01-15T15:03:06;-5.90;1.00
1361;DHT22;674;45.552;-122.600;2024-01-15T15:05:35;-6.00;1.00
1361;DHT22;674;45.552;-122.600;2024-01-15T15:08:04;-6.30;1.00
1361;DHT22;674;45.552;-122.600;2024-01-15T15:10:36;-6.10;1.00
1361;DHT22;674;45.552;-122.600;2024-01-15T15:13:06;-6.10;1.00
1361;DHT22;674;45.552;-122.600;2024-01-15T15:15:35;-6.00;1.00
1361;DHT22;674;45.552;-122.600;2024-01-15T15:18:04;-6.00;1.00
1361;DHT22;674;45.552;-122.600;2024-01-15T15:20:33;-6.30;1.00
1361;DHT22;674;45.552;-122.600;2024-01-15T15:23:01;-6.00;1.00
1361;DHT22;674;45.552;-122.600;2024-01-15T15:25:31;-6.00;1.00
1361;DHT22;674;45.552;-122.600;2024-01-15T15:27:59;-5.80;1.00
1361;DHT22;674;45.552;-122.600;2024-01-15T15:30:28;-6.10;1.00
1361;DHT22;674;45.552;-122.600;2024-01-15T15:32:57;-6.00;1.00
1361;DHT22;674;45.552;-122.600;2024-01-15T15:35:26;-6.30;1.00
1361;DHT22;674;45.552;-122.600;2024-01-15T15:37:55;-6.10;1.00
1361;DHT22;674;45.552;-122.600;2024-01-15T15:40:24;-6.00;1.00
1361;DHT22;674;45.552;-122.600;2024-01-15T15:42:52;-5.80;1.00
1361;DHT22;674;45.552;-122.600;2024-01-15T15:45:21;-5.80;1.00
1361;DHT22;674;45.552;-122.600;2024-01-15T15:47:49;-6.20;1.00
1361;DHT22;674;45.552;-122.600;2024-01-15T15:50:18;-6.30;1.00
1361;DHT22;674;45.552;-122.600;2024-01-15T15:52:47;-6.00;1.00
1361;DHT22;674;45.552;-122.600;2024-01-15T15:55:15;-5.80;1.00
1361;DHT22;674;45.552;-122.600;2024-01-15T15:57:44;-6.10;1.00
1361;DHT22;674;45.552;-122.600;2024-01-15T16:00:13;-6.00;1.00
1361;DHT22;674;45.552;-122.600;2024-01-15T16:02:42;-5.90;1.00
1361;DHT22;674;45.552;-122.600;2024-01-15T16:05:10;-6.00;1.00